Time;durP1;ratioP1;P1;durP2;ratioP2;P2;SDS_P1;SDS_P2;PMS_P1;PMS_P2;Temp;Humidity;BMP_temperature;BMP_pressure;BME280_temperature;BME280_humidity;BME280_pressure;Samples;Min_cycle;Max_cycle;Signal;HPM_P1;HPM_P2
2023/01/24 00:01:13;;;;;;;13.38;8.38;;;;;;;;;;5080540;28;20041;-76
2023/01/24 00:03:39;;;;;;;15.10;8.70;;;;;;;;;;5093031;28;20042;-76
2023/01/24 00:06:05;;;;;;;14.45;8.63;;;;;;;;;;5056967;28;20040;-76
2023/01/24 00:08:31;;;;;;;13.18;8.15;;;;;;;;;;5073756;28;20036;-76
2023/01/24 00:11:06;;;;;;;15.68;9.18;;;3.20;99.90;;;;;;5085072;28;20065;-76
2023/01/24 00:13:32;;;;;;;15.63;9.07;;;;;;;;;;5084949;28;20036;-76
2023/01/24 00:16:02;;;;;;;14.20;8.60;;;;;;;;;;5068261;28;20089;-76
2023/01/24 00:18:28;;;;;;;13.05;7.93;;;;;;;;;;5052666;28;20040;-76
2023/01/24 00:21:00;;;;;;;16.27;8.68;;;;;;;;;;5063201;28;20052;-76
2023/01/24 00:23:26;;;;;;;14.07;8.40;;;;;;;;;;5050932;28;20042;-76
2023/01/24 00:25:51;;;;;;;13.20;7.82;;;3.60;99.90;;;;;;5081463;28;20032;-76
2023/01/24 00:28:17;;;;;;;15.18;8.95;;;;;;;;;;5065056;28;20036;-76
2023/01/24 00:30:43;;;;;;;14.02;8.32;;;;;;;;;;5073453;28;20433;-76
2023/01/24 00:33:09;;;;;;;17.25;9.40;;;;;;;;;;5071454;28;20044;-76
2023/01/24 00:35:35;;;;;;;16.15;8.63;;;;;;;;;;5069418;28;20127;-76
2023/01/24 00:38:01;;;;;;;15.43;8.85;;;;;;;;;;5085208;28;20456;-77
2023/01/24 00:40:27;;;;;;;14.30;8.50;;;;;;;;;;5063962;28;20079;-77
2023/01/24 00:42:53;;;;;;;15.38;9.00;;;;;;;;;;5076168;28;20116;-77
2023/01/24 00:45:19;;;;;;;15.68;9.68;;;3.70;99.90;;;;;;5053640;28;20043;-76
2023/01/24 00:47:45;;;;;;;14.35;8.98;;;3.60;99.90;;;;;;5063352;28;20028;-77
2023/01/24 00:50:11;;;;;;;14.98;9.88;;;;;;;;;;5066107;28;20059;-77
2023/01/24 00:52:37;;;;;;;17.50;10.25;;;;;;;;;;5051425;28;20040;-76
2023/01/24 00:55:03;;;;;;;14.02;8.57;;;;;;;;;;5059083;28;20044;-76
2023/01/24 00:57:29;;;;;;;13.88;9.30;;;;;;;;;;5062316;28;20065;-76
2023/01/24 00:59:55;;;;;;;17.30;10.07;;;;;;;;;;5058049;28;20656;-76
2023/01/24 01:02:21;;;;;;;15.90;9.30;;;;;;;;;;5066331;28;20070;-76
2023/01/24 01:04:46;;;;;;;15.55;9.82;;;3.70;99.90;;;;;;5070631;28;20110;-76
2023/01/24 01:07:12;;;;;;;14.68;8.95;;;3.70;99.90;;;;;;5043241;28;20119;-76
2023/01/24 01:09:38;;;;;;;14.80;9.27;;;;;;;;;;5059678;28;20029;-76
2023/01/24 01:12:04;;;;;;;15.85;9.65;;;;;;;;;;5056820;28;20036;-76
2023/01/24 01:14:30;;;;;;;15.82;9.07;;;;;;;;;;5085620;28;20047;-76
2023/01/24 01:16:56;;;;;;;16.60;9.82;;;;;;;;;;5090139;28;20036;-76
2023/01/24 01:19:22;;;;;;;15.85;9.73;;;;;;;;;;5051404;28;20090;-76
2023/01/24 01:21:49;;;;;;;14.15;8.93;;;;;;;;;;5078148;28;20036;-76
2023/01/24 01:24:15;;;;;;;15.07;9.75;;;;;;;;;;5053133;28;20042;-76
2023/01/24 01:26:41;;;;;;;16.75;9.80;;;;;;;;;;5042819;28;20071;-76
2023/01/24 01:29:07;;;;;;;16.42;9.95;;;;;;;;;;5070238;28;20052;-77
2023/01/24 01:31:33;;;;;;;15.90;9.68;;;;;;;;;;5075261;28;20052;-76
2023/01/24 01:33:59;;;;;;;15.73;9.82;;;;;;;;;;5080229;28;20033;-76
2023/01/24 01:36:25;;;;;;;15.63;9.07;;;;;;;;;;5065153;28;20040;-76
2023/01/24 01:38:52;;;;;;;16.60;9.73;;;;;;;;;;5076193;28;20449;-76
2023/01/24 01:41:18;;;;;;;15.10;9.60;;;3.70;99.90;;;;;;5068439;28;20097;-76
2023/01/24 01:46:30;;;;;;;15.23;9.20;;;;;;;;;;5064282;28;20036;-76
2023/01/24 01:48:58;;;;;;;17.55;9.85;;;;;;;;;;5053867;28;20081;-76
2023/01/24 01:51:33;;;;;;;17.17;9.93;;;;;;;;;;5095045;28;20046;-76
2023/01/24 01:53:59;;;;;;;16.30;10.27;;;;;;;;;;5063990;28;20634;-76
2023/01/24 01:56:45;;;;;;;17.00;10.27;;;;;;;;;;5086970;28;20043;-76
2023/01/24 01:59:16;;;;;;;16.77;9.82;;;;;;;;;;5063239;28;20057;-76
2023/01/24 02:01:44;;;;;;;16.08;9.57;;;;;;;;;;5064311;28;20415;-76
2023/01/24 02:04:22;;;;;;;17.17;9.98;;;3.40;99.90;;;;;;5071167;28;20045;-76
2023/01/24 02:06:48;;;;;;;17.17;10.82;;;;;;;;;;5047260;28;20045;-76
2023/01/24 02:09:16;;;;;;;16.70;10.30;;;;;;;;;;5079306;28;20043;-76
2023/01/24 02:11:43;;;;;;;17.23;10.55;;;;;;;;;;5066365;28;20035;-76
2023/01/24 02:16:57;;;;;;;18.38;9.95;;;3.60;99.90;;;;;;5073252;28;20040;-76
2023/01/24 02:19:36;;;;;;;15.48;9.20;;;;;;;;;;5082461;28;20417;-76
2023/01/24 02:22:08;;;;;;;16.85;9.90;;;;;;;;;;5084046;28;20090;-76
2023/01/24 02:24:37;;;;;;;17.45;10.57;;;;;;;;;;5059876;28;20050;-76
2023/01/24 02:27:03;;;;;;;16.30;9.57;;;;;;;;;;5067493;28;20036;-76
2023/01/24 02:29:30;;;;;;;17.80;9.40;;;;;;;;;;5083187;28;20123;-75
2023/01/24 02:31:56;;;;;;;16.65;10.45;;;;;;;;;;5083745;28;20047;-76
2023/01/24 02:34:22;;;;;;;15.63;10.07;;;;;;;;;;5096229;28;20040;-76
2023/01/24 02:36:50;;;;;;;18.83;10.02;;;;;;;;;;5065706;28;20051;-76
2023/01/24 02:39:18;;;;;;;16.05;9.68;;;;;;;;;;5080021;28;20561;-76
2023/01/24 02:41:55;;;;;;;16.40;10.05;;;;;;;;;;5074042;28;20032;-75
2023/01/24 02:44:49;;;;;;;14.52;8.63;;;3.50;99.90;;;;;;5061746;28;20043;-76
2023/01/24 02:47:15;;;;;;;14.23;8.85;;;;;;;;;;5069500;28;20048;-76
2023/01/24 02:49:41;;;;;;;19.10;9.85;;;;;;;;;;5050152;28;20036;-76
2023/01/24 02:54:53;;;;;;;15.25;8.70;;;;;;;;;;5087096;28;20040;-75
2023/01/24 03:00:06;;;;;;;18.33;10.90;;;;;;;;;;5068228;28;20548;-76
2023/01/24 03:02:32;;;;;;;17.98;9.70;;;;;;;;;;5090352;28;20051;-75
2023/01/24 03:04:58;;;;;;;15.63;9.32;;;;;;;;;;5061201;28;20059;-75
2023/01/24 03:07:24;;;;;;;17.27;9.60;;;;;;;;;;5066562;28;20634;-75
2023/01/24 03:09:50;;;;;;;16.35;9.43;;;;;;;;;;5058069;28;20040;-75
2023/01/24 03:34:30;;;;;;;17.20;9.90;;;;;;;;;;5058774;28;20049;-75
2023/01/24 03:36:56;;;;;;;17.15;9.60;;;;;;;;;;5080218;28;20111;-75
2023/01/24 03:42:07;;;;;;;15.43;9.43;;;;;;;;;;5059834;28;20048;-76
2023/01/24 03:44:33;;;;;;;17.75;9.48;;;;;;;;;;5065620;28;20044;-76
2023/01/24 03:46:59;;;;;;;16.23;9.15;;;;;;;;;;5081223;28;20393;-75
2023/01/24 03:52:28;;;;;;;16.13;9.50;;;3.60;99.90;;;;;;5067022;28;20040;-76
2023/01/24 03:54:54;;;;;;;15.73;10.05;;;;;;;;;;5070446;28;20062;-75
2023/01/24 03:57:20;;;;;;;15.35;8.82;;;;;;;;;;5059433;28;20057;-76
2023/01/24 03:59:46;;;;;;;16.80;9.57;;;3.60;99.90;;;;;;5045092;28;20380;-76
2023/01/24 04:02:12;;;;;;;15.15;9.02;;;;;;;;;;5074604;28;20037;-75
2023/01/24 04:07:22;;;;;;;14.50;8.43;;;3.60;99.90;;;;;;5061794;28;20443;-75
2023/01/24 04:09:48;;;;;;;13.35;8.23;;;;;;;;;;5043710;28;20038;-76
2023/01/24 04:12:14;;;;;;;19.08;10.07;;;;;;;;;;5075571;28;20037;-75
2023/01/24 04:14:40;;;;;;;15.32;9.60;;;3.60;99.90;;;;;;5062091;28;20067;-76
2023/01/24 04:17:06;;;;;;;14.35;8.45;;;;;;;;;;5067091;28;20060;-75
2023/01/24 04:19:31;;;;;;;14.85;8.75;;;3.70;99.90;;;;;;5058617;28;20541;-75
2023/01/24 04:21:58;;;;;;;15.05;8.40;;;;;;;;;;5082899;28;20040;-76
2023/01/24 04:24:24;;;;;;;13.77;8.23;;;;;;;;;;5056197;28;20409;-75
2023/01/24 04:26:50;;;;;;;14.38;8.93;;;;;;;;;;5077357;28;20040;-75
2023/01/24 04:29:16;;;;;;;14.88;8.65;;;;;;;;;;5079586;28;20406;-75
2023/01/24 04:31:42;;;;;;;14.57;7.85;;;;;;;;;;5067870;28;20078;-75
2023/01/24 04:34:08;;;;;;;15.43;9.02;;;;;;;;;;5072441;28;20117;-75
2023/01/24 04:36:34;;;;;;;14.27;8.13;;;;;;;;;;5060797;28;20523;-75
2023/01/24 04:39:00;;;;;;;14.80;8.43;;;3.70;99.90;;;;;;5066466;28;20498;-75
2023/01/24 04:41:26;;;;;;;15.00;8.65;;;;;;;;;;5058709;28;20041;-76
2023/01/24 04:43:52;;;;;;;15.55;8.98;;;;;;;;;;5068071;28;20029;-76
2023/01/24 04:46:18;;;;;;;15.98;8.77;;;;;;;;;;5057614;28;20559;-75
2023/01/24 04:48:43;;;;;;;14.98;8.57;;;3.70;99.90;;;;;;5084868;28;20432;-76
2023/01/24 04:51:09;;;;;;;14.27;8.02;;;;;;;;;;5063980;28;20045;-76
2023/01/24 04:53:38;;;;;;;14.32;8.93;;;4.20;99.90;;;;;;5047265;28;20040;-76
2023/01/24 04:56:05;;;;;;;15.10;9.20;;;;;;;;;;5073384;28;20612;-76
2023/01/24 04:58:32;;;;;;;16.23;8.95;;;;;;;;;;5062778;28;20126;-76
2023/01/24 05:00:58;;;;;;;14.77;9.18;;;;;;;;;;5053695;28;20661;-76
2023/01/24 05:03:24;;;;;;;16.45;9.02;;;;;;;;;;5079498;28;20119;-76
2023/01/24 05:05:51;;;;;;;14.95;8.93;;;;;;;;;;5074275;28;20089;-76
2023/01/24 05:08:17;;;;;;;18.00;10.18;;;;;;;;;;5057787;28;20088;-76
2023/01/24 05:10:43;;;;;;;16.45;9.68;;;;;;;;;;5044747;28;20044;-76
2023/01/24 05:13:09;;;;;;;15.15;8.73;;;;;;;;;;5073672;28;20170;-76
2023/01/24 05:15:35;;;;;;;14.43;8.55;;;;;;;;;;5067022;28;20103;-76
2023/01/24 05:18:01;;;;;;;15.63;9.25;;;;;;;;;;5078352;28;20377;-76
2023/01/24 05:20:27;;;;;;;13.73;8.45;;;;;;;;;;5065266;28;20044;-76
2023/01/24 05:22:56;;;;;;;15.02;9.30;;;;;;;;;;5070030;28;20552;-76
2023/01/24 05:25:22;;;;;;;14.43;8.73;;;;;;;;;;5077405;28;20040;-75
2023/01/24 05:27:48;;;;;;;13.15;7.97;;;;;;;;;;5068184;28;20619;-75
2023/01/24 05:30:14;;;;;;;13.48;7.78;;;;;;;;;;5071649;28;20048;-75
2023/01/24 05:32:40;;;;;;;14.45;7.57;;;;;;;;;;5060823;28;20063;-75
2023/01/24 05:35:06;;;;;;;13.40;8.00;;;;;;;;;;5079824;28;20036;-75
2023/01/24 05:37:33;;;;;;;14.18;8.45;;;;;;;;;;5060089;28;20036;-75
2023/01/24 05:39:59;;;;;;;14.13;8.25;;;;;;;;;;5062157;28;20043;-75
2023/01/24 05:42:25;;;;;;;14.23;8.70;;;3.80;99.90;;;;;;5076384;28;20036;-75
2023/01/24 05:44:51;;;;;;;14.18;8.50;;;;;;;;;;5064947;28;20554;-75
2023/01/24 05:47:17;;;;;;;14.52;8.32;;;;;;;;;;5059918;28;20036;-75
2023/01/24 05:49:43;;;;;;;15.98;10.13;;;;;;;;;;5042942;28;20090;-75
2023/01/24 05:52:09;;;;;;;17.80;9.85;;;;;;;;;;5069904;28;20420;-75
2023/01/24 05:54:35;;;;;;;16.23;9.25;;;;;;;;;;5065990;28;20543;-75
2023/01/24 05:57:01;;;;;;;15.77;9.18;;;;;;;;;;5060265;28;20036;-75
2023/01/24 05:59:27;;;;;;;15.27;9.18;;;;;;;;;;5056972;28;20037;-75
2023/01/24 06:01:53;;;;;;;15.25;8.88;;;;;;;;;;5073205;28;20032;-75
2023/01/24 06:04:19;;;;;;;17.27;8.98;;;3.70;99.90;;;;;;5078498;28;20036;-75
2023/01/24 06:06:45;;;;;;;15.07;8.60;;;;;;;;;;5078981;28;20107;-75
2023/01/24 06:09:11;;;;;;;14.70;8.80;;;;;;;;;;5056039;28;20028;-75
2023/01/24 06:11:37;;;;;;;15.20;8.63;;;;;;;;;;5064042;28;20075;-76
2023/01/24 06:14:02;;;;;;;15.43;8.98;;;3.70;99.90;;;;;;5088075;28;20508;-75
2023/01/24 06:16:28;;;;;;;16.15;9.13;;;3.70;99.90;;;;;;5065855;28;20175;-75
2023/01/24 06:18:55;;;;;;;15.27;9.02;;;;;;;;;;5058326;28;20028;-75
2023/01/24 06:21:21;;;;;;;13.20;8.20;;;;;;;;;;5087478;28;20051;-75
2023/01/24 06:23:47;;;;;;;16.85;9.35;;;;;;;;;;5071626;28;20044;-75
2023/01/24 06:26:13;;;;;;;15.05;8.88;;;3.70;99.90;;;;;;5068616;28;20036;-75
2023/01/24 06:28:39;;;;;;;15.63;9.27;;;;;;;;;;5068921;28;20084;-75
2023/01/24 06:31:17;;;;;;;16.25;9.23;;;;;;;;;;5088342;28;20050;-75
2023/01/24 06:33:49;;;;;;;14.60;8.65;;;;;;;;;;5076696;28;20444;-75
2023/01/24 06:36:15;;;;;;;15.57;10.00;;;;;;;;;;5070799;28;20048;-75
2023/01/24 06:38:41;;;;;;;16.73;8.85;;;;;;;;;;5086671;28;20109;-74
2023/01/24 06:41:16;;;;;;;15.73;9.35;;;3.70;99.90;;;;;;5071154;28;20040;-72
2023/01/24 06:43:42;;;;;;;15.48;9.70;;;;;;;;;;5077185;28;20086;-71
2023/01/24 06:46:09;;;;;;;15.68;9.68;;;4.10;99.90;;;;;;5069145;28;20058;-71
2023/01/24 06:48:35;;;;;;;14.93;8.93;;;3.70;99.90;;;;;;5062071;28;20499;-72
2023/01/24 06:51:01;;;;;;;17.20;9.98;;;;;;;;;;5076182;28;20029;-72
2023/01/24 06:53:27;;;;;;;16.40;9.75;;;;;;;;;;5087614;28;20032;-71
2023/01/24 06:55:53;;;;;;;16.45;9.85;;;;;;;;;;5091273;28;20443;-72
2023/01/24 06:58:19;;;;;;;15.70;9.57;;;;;;;;;;5087260;28;20037;-75
2023/01/24 07:00:45;;;;;;;17.98;9.98;;;;;;;;;;5090830;28;20032;-71
2023/01/24 07:03:11;;;;;;;16.30;9.70;;;;;;;;;;5092913;28;20040;-73
2023/01/24 07:05:38;;;;;;;16.42;9.95;;;;;;;;;;5090442;28;20036;-75
2023/01/24 07:08:04;;;;;;;18.67;11.40;;;;;;;;;;5074071;28;20042;-75
2023/01/24 07:10:30;;;;;;;18.73;10.85;;;;;;;;;;5055918;28;20422;-75
2023/01/24 07:12:57;;;;;;;19.85;11.13;;;;;;;;;;5065906;28;20046;-75
2023/01/24 07:15:23;;;;;;;18.17;11.15;;;;;;;;;;5064046;28;20120;-73
2023/01/24 07:17:49;;;;;;;17.30;9.95;;;3.40;99.90;;;;;;5082724;28;20051;-73
2023/01/24 07:20:15;;;;;;;19.50;11.60;;;;;;;;;;5069001;28;20040;-78
2023/01/24 07:22:42;;;;;;;18.55;11.50;;;;;;;;;;5070645;28;20447;-77
2023/01/24 07:25:15;;;;;;;18.77;12.32;;;;;;;;;;5073149;28;20032;-79
2023/01/24 07:27:42;;;;;;;20.05;11.88;;;;;;;;;;5072130;28;20028;-75
2023/01/24 07:30:09;;;;;;;19.65;11.45;;;;;;;;;;5050273;28;20044;-74
2023/01/24 07:32:35;;;;;;;19.55;12.00;;;;;;;;;;5066194;28;20043;-73
2023/01/24 07:35:01;;;;;;;20.00;12.15;;;;;;;;;;5090486;28;20404;-72
2023/01/24 07:37:27;;;;;;;18.85;11.45;;;;;;;;;;5090197;28;20043;-71
2023/01/24 07:39:53;;;;;;;18.70;11.50;;;;;;;;;;5087388;28;20032;-73
2023/01/24 07:42:19;;;;;;;21.70;12.48;;;;;;;;;;5064202;28;20036;-75
2023/01/24 07:44:45;;;;;;;21.95;12.50;;;3.70;99.90;;;;;;5083939;28;20760;-75
2023/01/24 07:47:11;;;;;;;20.65;12.65;;;;;;;;;;5071277;28;20051;-74
2023/01/24 07:49:37;;;;;;;21.83;13.52;;;;;;;;;;5079599;28;20074;-75
2023/01/24 07:52:03;;;;;;;22.60;13.65;;;;;;;;;;5057193;28;20123;-73
2023/01/24 07:54:29;;;;;;;20.70;13.02;;;;;;;;;;5063660;28;20044;-72
2023/01/24 07:56:55;;;;;;;22.77;14.05;;;;;;;;;;5079420;28;20113;-74
2023/01/24 07:59:21;;;;;;;21.17;12.77;;;;;;;;;;5076641;28;20638;-73
2023/01/24 08:01:46;;;;;;;23.33;13.45;;;3.60;99.90;;;;;;5066281;28;20097;-72
2023/01/24 08:04:12;;;;;;;22.85;14.10;;;;;;;;;;5080779;28;20032;-73
2023/01/24 08:07:16;;;;;;;21.48;14.02;;;;;;;;;;5063886;28;20036;-74
2023/01/24 08:09:28;;;;;;;22.00;14.48;;;;;;;;;;5061381;28;20161;-77
2023/01/24 08:11:54;;;;;;;24.65;14.43;;;;;;;;;;5079277;28;20036;-80
2023/01/24 08:14:21;;;;;;;21.45;14.13;;;;;;;;;;5059008;28;20467;-76
2023/01/24 08:16:48;;;;;;;23.33;13.73;;;;;;;;;;5081269;28;20071;-75
2023/01/24 08:19:14;;;;;;;24.23;14.43;;;;;;;;;;5057428;28;20043;-74
2023/01/24 08:21:39;;;;;;;26.10;14.75;;;3.60;99.90;;;;;;5066782;28;20070;-76
2023/01/24 08:24:06;;;;;;;24.67;14.27;;;;;;;;;;5079407;28;20032;-80
2023/01/24 08:26:32;;;;;;;23.33;14.77;;;3.60;99.90;;;;;;5063698;28;20072;-78
2023/01/24 08:28:57;;;;;;;23.63;14.25;;;3.70;99.90;;;;;;5056787;28;20028;-76
2023/01/24 08:31:23;;;;;;;24.90;14.90;;;;;;;;;;5063181;28;20047;-75
2023/01/24 08:33:51;;;;;;;25.52;15.30;;;;;;;;;;5054670;28;20029;-76
2023/01/24 08:36:19;;;;;;;22.80;14.30;;;;;;;;;;5083786;28;20044;-74
2023/01/24 08:38:45;;;;;;;24.25;15.65;;;3.70;99.90;;;;;;5061229;28;20043;-75
2023/01/24 08:41:10;;;;;;;23.92;14.50;;;3.60;99.90;;;;;;5057757;28;20039;-77
2023/01/24 08:43:36;;;;;;;25.63;15.20;;;;;;;;;;5080507;28;20032;-74
2023/01/24 08:46:03;;;;;;;23.73;15.43;;;;;;;;;;5073176;28;20032;-75
2023/01/24 08:48:29;;;;;;;24.98;15.65;;;;;;;;;;5062062;28;20040;-74
2023/01/24 08:50:55;;;;;;;25.98;15.77;;;;;;;;;;5071448;28;20039;-73
2023/01/24 08:53:21;;;;;;;28.58;16.98;;;;;;;;;;5044507;28;20059;-76
2023/01/24 08:55:51;;;;;;;25.10;15.38;;;;;;;;;;5079690;28;20043;-76
2023/01/24 08:58:17;;;;;;;27.20;15.43;;;;;;;;;;5060947;28;20086;-76
2023/01/24 09:00:43;;;;;;;24.23;15.23;;;;;;;;;;5060361;28;20036;-76
2023/01/24 09:03:11;;;;;;;24.50;15.82;;;3.90;99.90;;;;;;5055537;28;20424;-77
2023/01/24 09:05:38;;;;;;;23.17;15.18;;;;;;;;;;5062247;28;20091;-73
2023/01/24 09:08:05;;;;;;;22.40;14.32;;;4.00;99.90;;;;;;5066878;28;20048;-74
2023/01/24 09:10:31;;;;;;;24.80;14.45;;;;;;;;;;5078291;28;20036;-76
2023/01/24 09:12:57;;;;;;;23.83;14.35;;;;;;;;;;5078490;28;20036;-78
2023/01/24 09:15:23;;;;;;;24.98;14.52;;;;;;;;;;5041743;28;20118;-76
2023/01/24 09:17:49;;;;;;;24.02;14.98;;;;;;;;;;5043910;28;20044;-75
2023/01/24 09:20:15;;;;;;;22.60;14.25;;;;;;;;;;5055220;28;20045;-76
2023/01/24 09:22:41;;;;;;;23.80;14.30;;;;;;;;;;5061691;28;20051;-75
2023/01/24 09:25:08;;;;;;;25.38;14.05;;;;;;;;;;5052174;28;20033;-74
2023/01/24 09:27:34;;;;;;;24.70;14.13;;;;;;;;;;5059517;28;20036;-75
2023/01/24 09:30:00;;;;;;;23.67;13.35;;;;;;;;;;5059898;28;20036;-73
2023/01/24 09:32:26;;;;;;;23.85;14.38;;;;;;;;;;5073918;28;20042;-78
2023/01/24 09:34:52;;;;;;;24.08;14.45;;;;;;;;;;5069812;28;20058;-75
2023/01/24 09:37:19;;;;;;;25.20;14.65;;;;;;;;;;5057107;28;20681;-73
2023/01/24 09:39:45;;;;;;;26.85;16.27;;;;;;;;;;5069145;28;20397;-75
2023/01/24 09:42:17;;;;;;;24.33;14.45;;;3.90;99.90;;;;;;5059017;28;20044;-76
2023/01/24 09:44:58;;;;;;;24.65;15.35;;;3.40;99.90;;;;;;5075296;28;20401;-79
2023/01/24 09:47:25;;;;;;;21.90;13.73;;;;;;;;;;5059129;28;20501;-74
2023/01/24 09:49:54;;;;;;;24.48;15.13;;;;;;;;;;5068294;28;20123;-77
2023/01/24 09:52:32;;;;;;;23.52;14.13;;;;;;;;;;5075413;28;20521;-78
2023/01/24 09:55:13;;;;;;;24.17;14.82;;;3.80;99.90;;;;;;5038048;28;20040;-76
2023/01/24 09:57:52;;;;;;;25.88;15.98;;;3.80;99.90;;;;;;5056909;28;20040;-77
2023/01/24 10:00:22;;;;;;;23.70;15.65;;;;;;;;;;5058743;28;20048;-80
2023/01/24 10:02:48;;;;;;;23.88;14.90;;;;;;;;;;5075913;28;20048;-80
2023/01/24 10:05:15;;;;;;;24.85;15.85;;;;;;;;;;5059601;28;20070;-78
2023/01/24 10:07:44;;;;;;;24.90;15.45;;;;;;;;;;5074905;28;20093;-78
2023/01/24 10:10:16;;;;;;;24.50;15.50;;;;;;;;;;5051710;28;20071;-83
2023/01/24 10:12:51;;;;;;;22.83;14.75;;;;;;;;;;5063848;28;20043;-82
2023/01/24 10:15:22;;;;;;;25.52;15.48;;;;;;;;;;5059765;28;20063;-80
2023/01/24 10:18:04;;;;;;;22.35;13.90;;;;;;;;;;5055942;28;20502;-79
2023/01/24 10:20:36;;;;;;;22.63;14.23;;;;;;;;;;5059118;28;20143;-77
2023/01/24 10:23:08;;;;;;;24.73;14.45;;;;;;;;;;5056123;28;20044;-75
2023/01/24 10:25:43;;;;;;;23.27;14.32;;;;;;;;;;5078693;28;20036;-76
2023/01/24 10:28:15;;;;;;;24.55;15.73;;;;;;;;;;5038011;28;20405;-73
2023/01/24 10:30:44;;;;;;;23.25;14.85;;;;;;;;;;5064044;28;20067;-75
2023/01/24 10:33:17;;;;;;;24.55;14.48;;;;;;;;;;5076652;28;20044;-76
2023/01/24 10:35:55;;;;;;;22.15;13.60;;;;;;;;;;5081230;28;20058;-73
2023/01/24 10:38:21;;;;;;;20.65;13.15;;;;;;;;;;5066224;28;20036;-78
2023/01/24 10:40:55;;;;;;;21.02;13.32;;;;;;;;;;5071355;28;20040;-79
2023/01/24 10:43:24;;;;;;;21.92;13.82;;;;;;;;;;5061896;28;20033;-84
2023/01/24 10:46:04;;;;;;;22.17;12.32;;;4.20;99.90;;;;;;5071844;28;20036;-74
2023/01/24 10:48:45;;;;;;;18.35;12.55;;;3.80;99.90;;;;;;5074617;28;20632;-80
2023/01/24 10:51:16;;;;;;;19.67;12.75;;;;;;;;;;5061847;28;20044;-78
2023/01/24 10:53:42;;;;;;;21.98;12.90;;;;;;;;;;5048577;28;20040;-78
2023/01/24 10:56:08;;;;;;;20.13;12.43;;;4.10;99.90;;;;;;5068483;28;20072;-75
2023/01/24 10:58:40;;;;;;;17.98;11.98;;;4.20;99.90;;;;;;5064185;28;20418;-73
2023/01/24 11:01:17;;;;;;;18.35;11.35;;;;;;;;;;5083145;28;20090;-74
2023/01/24 11:03:43;;;;;;;17.92;11.27;;;;;;;;;;5090306;28;20046;-73
2023/01/24 11:06:28;;;;;;;18.38;11.98;;;;;;;;;;5074715;28;20498;-73
2023/01/24 11:09:14;;;;;;;19.85;11.88;;;;;;;;;;5059612;28;20384;-75
2023/01/24 11:11:46;;;;;;;21.65;12.52;;;4.30;99.90;;;;;;5064351;28;20134;-78
2023/01/24 11:14:14;;;;;;;18.92;11.75;;;;;;;;;;5058964;28;20090;-77
2023/01/24 11:16:47;;;;;;;19.58;12.85;;;4.00;99.90;;;;;;5074844;28;20043;-74
2023/01/24 11:19:25;;;;;;;17.05;10.88;;;;;;;;;;5056943;28;20063;-74
2023/01/24 11:21:54;;;;;;;17.15;10.82;;;;;;;;;;5056929;28;20040;-76
2023/01/24 11:24:20;;;;;;;19.38;11.30;;;4.20;99.90;;;;;;5042796;28;20503;-78
2023/01/24 11:27:05;;;;;;;19.05;12.35;;;;;;;;;;5059707;28;20755;-80
2023/01/24 11:29:34;;;;;;;18.70;11.00;;;;;;;;;;5075442;28;20037;-79
2023/01/24 11:32:12;;;;;;;19.13;11.65;;;;;;;;;;5059072;28;20115;-80
2023/01/24 11:34:46;;;;;;;17.02;10.68;;;4.50;99.90;;;;;;5070094;28;20048;-76
2023/01/24 11:37:17;;;;;;;20.20;11.30;;;4.00;99.90;;;;;;5081084;28;20044;-77
2023/01/24 11:39:43;;;;;;;18.50;11.05;;;;;;;;;;5069527;28;20066;-80
2023/01/24 11:42:32;;;;;;;20.45;12.00;;;;;;;;;;5061713;28;20044;-77
2023/01/24 11:45:15;;;;;;;19.50;11.75;;;;;;;;;;5072558;28;20041;-80
2023/01/24 11:47:47;;;;;;;19.77;12.40;;;;;;;;;;5062709;28;20083;-73
2023/01/24 11:50:28;;;;;;;20.92;12.43;;;;;;;;;;5065648;28;20068;-69
2023/01/24 11:53:05;;;;;;;17.42;10.55;;;;;;;;;;5079724;28;20116;-68
2023/01/24 11:55:38;;;;;;;20.75;11.77;;;4.10;99.90;;;;;;5084996;28;20031;-76
2023/01/24 11:58:16;;;;;;;17.95;11.63;;;;;;;;;;5070111;28;20040;-76
2023/01/24 12:00:45;;;;;;;20.38;12.10;;;;;;;;;;5082697;28;20141;-76
2023/01/24 12:03:14;;;;;;;17.92;11.50;;;;;;;;;;5088403;28;20040;-76
2023/01/24 12:05:40;;;;;;;18.85;11.98;;;;;;;;;;5071125;28;20040;-76
2023/01/24 12:08:26;;;;;;;18.10;11.70;;;;;;;;;;5085211;28;20112;-76
2023/01/24 12:11:05;;;;;;;19.13;11.95;;;;;;;;;;5068914;28;20033;-76
2023/01/24 12:13:58;;;;;;;20.02;12.45;;;4.40;99.90;;;;;;5052326;28;20074;-76
2023/01/24 12:16:50;;;;;;;20.20;11.60;;;;;;;;;;5083540;28;20047;-76
2023/01/24 12:19:25;;;;;;;18.48;11.45;;;;;;;;;;5057982;28;20074;-76
2023/01/24 12:21:55;;;;;;;19.05;11.77;;;;;;;;;;5070512;28;20098;-75
2023/01/24 12:24:36;;;;;;;20.70;12.93;;;;;;;;;;5053165;28;20039;-76
2023/01/24 12:27:03;;;;;;;18.92;12.10;;;;;;;;;;5074460;28;20028;-76
2023/01/24 12:29:45;;;;;;;20.10;12.88;;;;;;;;;;5066486;28;20036;-76
2023/01/24 12:32:26;;;;;;;18.60;12.15;;;;;;;;;;5037772;28;20041;-76
2023/01/24 12:35:23;;;;;;;19.38;12.48;;;4.40;99.90;;;;;;5057008;28;20051;-76
2023/01/24 12:37:59;;;;;;;17.95;11.10;;;;;;;;;;5076684;28;20044;-76
2023/01/24 12:40:43;;;;;;;20.88;12.82;;;;;;;;;;5087420;28;20047;-76
2023/01/24 12:43:34;;;;;;;20.30;12.63;;;3.90;99.90;;;;;;5072102;28;20048;-76
2023/01/24 12:46:10;;;;;;;19.58;12.60;;;4.00;99.90;;;;;;5067833;28;20039;-75
2023/01/24 12:48:48;;;;;;;20.45;12.25;;;4.60;99.90;;;;;;5038418;28;20071;-76
2023/01/24 12:51:21;;;;;;;20.50;13.23;;;;;;;;;;5059668;28;20047;-76
2023/01/24 12:53:50;;;;;;;19.92;13.38;;;;;;;;;;5074116;28;20054;-76
2023/01/24 12:56:21;;;;;;;18.80;12.38;;;4.50;99.90;;;;;;5072334;28;20036;-76
2023/01/24 12:58:49;;;;;;;24.33;13.85;;;;;;;;;;5059956;28;20045;-76
2023/01/24 13:01:39;;;;;;;20.77;12.98;;;4.50;99.90;;;;;;5074176;28;20131;-76
2023/01/24 13:04:13;;;;;;;20.60;13.90;;;4.40;99.90;;;;;;5065794;28;20067;-76
2023/01/24 13:06:42;;;;;;;;;;;3.90;99.90;;;;;;5040351;28;20035;-76
2023/01/24 13:09:14;;;;;;;21.75;13.38;;;;;;;;;;5046746;28;19973;-76
2023/01/24 13:11:44;;;;;;;22.67;12.85;;;;;;;;;;5054903;28;20063;-76
2023/01/24 13:14:11;;;;;;;22.50;13.30;;;;;;;;;;5073956;28;20501;-76
2023/01/24 13:16:40;;;;;;;20.65;11.63;;;;;;;;;;5044206;28;20401;-76
2023/01/24 13:19:12;;;;;;;22.25;13.32;;;;;;;;;;5055769;28;20044;-76
2023/01/24 13:21:44;;;;;;;20.15;12.93;;;;;;;;;;5058590;28;20574;-75
2023/01/24 13:24:10;;;;;;;18.95;12.57;;;;;;;;;;5055325;28;20185;-75
2023/01/24 13:26:42;;;;;;;20.38;12.98;;;;;;;;;;5042086;28;20135;-82
2023/01/24 13:29:14;;;;;;;20.45;13.40;;;;;;;;;;5071735;28;20106;-82
2023/01/24 13:31:43;;;;;;;21.10;13.02;;;;;;;;;;5052934;28;20075;-82
2023/01/24 13:34:15;;;;;;;21.77;13.55;;;4.00;99.90;;;;;;5057497;28;20040;-83
2023/01/24 13:36:47;;;;;;;20.98;12.77;;;;;;;;;;5085686;28;20041;-81
2023/01/24 13:39:28;;;;;;;22.60;13.20;;;;;;;;;;5102587;28;20032;-81
2023/01/24 13:42:01;;;;;;;21.52;13.77;;;;;;;;;;5078850;28;20194;-82
2023/01/24 13:44:28;;;;;;;21.65;12.50;;;;;;;;;;5065726;28;20054;-81
2023/01/24 13:46:54;;;;;;;20.52;14.20;;;;;;;;;;5083433;28;20047;-81
2023/01/24 13:49:26;;;;;;;20.92;14.00;;;;;;;;;;5080116;28;20037;-82
2023/01/24 13:51:52;;;;;;;20.38;13.15;;;;;;;;;;5105566;28;20036;-82
2023/01/24 13:54:39;;;;;;;18.13;12.75;;;;;;;;;;5082480;28;20040;-82
2023/01/24 13:57:17;;;;;;;21.63;12.65;;;4.50;99.90;;;;;;5068863;28;20536;-84
2023/01/24 13:59:43;;;;;;;19.52;13.15;;;;;;;;;;5064849;28;20043;-81
2023/01/24 14:02:30;;;;;;;20.67;13.23;;;;;;;;;;5076639;28;20100;-84
2023/01/24 14:04:56;;;;;;;20.17;12.15;;;;;;;;;;5077217;28;20028;-83
2023/01/24 14:07:27;;;;;;;20.35;13.18;;;;;;;;;;5081494;28;20029;-83
2023/01/24 14:09:58;;;;;;;18.38;11.75;;;;;;;;;;5075873;28;20042;-82
2023/01/24 14:12:24;;;;;;;19.90;12.07;;;;;;;;;;5083602;28;20511;-82
2023/01/24 14:15:08;;;;;;;17.67;12.00;;;;;;;;;;5088520;28;20665;-75
2023/01/24 14:17:41;;;;;;;20.95;12.63;;;;;;;;;;5067760;28;20073;-77
2023/01/24 14:20:17;;;;;;;20.75;13.25;;;;;;;;;;5070822;28;20454;-76
2023/01/24 14:22:45;;;;;;;20.58;13.40;;;;;;;;;;5090701;28;20043;-76
2023/01/24 14:25:26;;;;;;;18.83;12.48;;;4.00;99.90;;;;;;5067175;28;20047;-78
2023/01/24 14:27:55;;;;;;;18.77;12.27;;;;;;;;;;5071155;28;20028;-78
2023/01/24 14:30:21;;;;;;;20.08;13.18;;;;;;;;;;5064528;28;20710;-78
2023/01/24 14:32:49;;;;;;;19.52;12.50;;;;;;;;;;5062592;28;20072;-82
2023/01/24 14:35:21;;;;;;;20.15;11.82;;;;;;;;;;5086417;28;20036;-78
2023/01/24 14:37:48;;;;;;;20.98;12.93;;;;;;;;;;5062815;28;20051;-77
2023/01/24 14:40:20;;;;;;;21.25;13.90;;;;;;;;;;5060202;28;20083;-78
2023/01/24 14:42:47;;;;;;;21.60;12.70;;;;;;;;;;5067948;28;20051;-81
2023/01/24 14:45:14;;;;;;;19.02;12.57;;;;;;;;;;5053089;28;20036;-80
2023/01/24 14:47:41;;;;;;;21.88;13.63;;;;;;;;;;5068399;28;20400;-80
2023/01/24 14:50:27;;;;;;;19.10;13.05;;;;;;;;;;5085114;28;20064;-83
2023/01/24 14:52:53;;;;;;;18.45;11.65;;;;;;;;;;5053985;28;20044;-82
2023/01/24 14:55:38;;;;;;;19.92;12.80;;;3.40;99.90;;;;;;5064127;28;20059;-84